2022年5月22日

时间 代码 天气 温度 能见度 乌云 METAR/SPECI
20:30
V
27 °C 10 km+ - 130°   130° 7 kt METAR LFCK 221830Z AUTO 13007KT CAVOK 27/20 Q1008 NOSIG
20:00
V
29 °C 10 km+ - 130°   130° 5 kt METAR LFCK 221800Z AUTO 13005KT 090V220 CAVOK 29/19 Q1008 NOSIG
19:30
V
29 °C 10 km+ - 130°   130° 10 kt METAR LFCK 221730Z AUTO 13010KT 9999 ///TCU 29/19 Q1008 BECMG NSC
19:00
V
30 °C 10 km+ - 120°   120° 10 kt METAR LFCK 221700Z AUTO 12010KT 090V150 CAVOK 30/19 Q1008 NOSIG
18:30
V
30 °C 10 km+ - Var   Var 3 kt METAR LFCK 221630Z AUTO VRB03KT CAVOK 30/20 Q1009 NOSIG
18:00
V
30 °C 10 km+ - 270°   270° 4 kt METAR LFCK 221600Z AUTO 27004KT CAVOK 30/19 Q1009 BECMG 13012KT
17:30
V
31 °C 10 km+ - 260°   260° 6 kt METAR LFCK 221530Z AUTO 26006KT 230V300 CAVOK 31/18 Q1009 BECMG 13012KT
17:00
V
33 °C 10 km+ - 140°   140° 7 kt METAR LFCK 221500Z AUTO 14007KT 110V180 CAVOK 33/17 Q1009 NOSIG
16:30
V
33 °C 10 km+ - 130°   130° 11 kt METAR LFCK 221430Z AUTO 13011KT CAVOK 33/18 Q1009 NOSIG
16:00
V
33 °C 10 km+ - 130°   130° 13 kt METAR LFCK 221400Z AUTO 13013KT CAVOK 33/18 Q1009 NOSIG
15:30
V
32 °C 10 km+ - 120°   120° 15 kt METAR LFCK 221330Z AUTO 12015KT CAVOK 32/17 Q1009 NOSIG
15:00
V
33 °C 10 km+ - 130°   130° 11 kt METAR LFCK 221300Z AUTO 13011KT 090V150 CAVOK 33/17 Q1010 NOSIG
14:30
V
34 °C 10 km+ - 110°   110° 10 kt METAR LFCK 221230Z AUTO 11010KT 070V160 CAVOK 34/16 Q1010 NOSIG
14:00
V
32 °C 10 km+ - 160°   160° 6 kt METAR LFCK 221200Z AUTO 16006KT 110V200 CAVOK 32/15 Q1011 NOSIG
13:30
V
31 °C 10 km+ - 160°   160° 5 kt METAR LFCK 221130Z AUTO 16005KT 100V200 CAVOK 31/14 Q1011 NOSIG
13:00
V
30 °C 10 km+ - 120°   120° 4 kt METAR LFCK 221100Z AUTO 12004KT 050V170 CAVOK 30/13 Q1012 NOSIG
12:30
V
30 °C 10 km+ - Var   Var 3 kt METAR LFCK 221030Z AUTO VRB03KT CAVOK 30/16 Q1012 NOSIG
12:00
V
29 °C 10 km+ - Var   Var 3 kt METAR LFCK 221000Z AUTO VRB03KT CAVOK 29/16 Q1012 NOSIG
11:30
V
27 °C 10 km+ - 230°   230° 4 kt METAR LFCK 220930Z AUTO 23004KT 150V280 CAVOK 27/17 Q1013 NOSIG
11:00
V
27 °C 10 km+ - 200°   200° 5 kt METAR LFCK 220900Z AUTO 20005KT 140V240 CAVOK 27/15 Q1013 NOSIG
10:30
V
25 °C 10 km+ - 250°   250° 3 kt METAR LFCK 220830Z AUTO 25003KT 180V330 CAVOK 25/17 Q1013 NOSIG
10:00
V
24 °C 10 km+ - Var   Var 1 kt METAR LFCK 220800Z AUTO VRB01KT CAVOK 24/17 Q1013 NOSIG
09:30
V
23 °C 10 km+ - 250°   250° 3 kt METAR LFCK 220730Z AUTO 25003KT 200V290 CAVOK 23/17 Q1014 NOSIG
09:00
V
23 °C 10 km+ - 120°   120° 3 kt METAR LFCK 220700Z AUTO 12003KT 070V160 CAVOK 23/17 Q1014 NOSIG
08:30
V
21 °C 10 km+ - 110°   110° 7 kt METAR LFCK 220630Z AUTO 11007KT CAVOK 21/17 Q1014 NOSIG
08:00
V
18 °C 10 km+ - 110°   110° 3 kt METAR LFCK 220600Z AUTO 11003KT CAVOK 18/16 Q1015 NOSIG
07:30
V
17 °C 10 km+ - 040°   040° 4 kt METAR LFCK 220530Z AUTO 04004KT CAVOK 17/16 Q1015
07:00
V
17 °C 10 km+ - 260°   260° 3 kt METAR LFCK 220500Z AUTO 26003KT CAVOK 17/16 Q1014
06:30
V
17 °C 10 km+ - 290°   290° 8 kt METAR LFCK 220430Z AUTO 29008KT CAVOK 17/15 Q1014
06:00
V
16 °C 10 km+ - 300°   300° 3 kt METAR LFCK 220400Z AUTO 30003KT CAVOK 16/14 Q1013
05:30
V
16 °C 10 km+ - 010°   010° 3 kt METAR LFCK 220330Z AUTO 01003KT 310V040 CAVOK 16/13 Q1013
05:00
V
17 °C 10 km+ - 110°   110° 5 kt METAR LFCK 220300Z AUTO 11005KT 060V150 CAVOK 17/13 Q1013
04:30
V
17 °C 10 km+ - Var   Var 2 kt METAR LFCK 220230Z AUTO VRB02KT CAVOK 17/14 Q1014
04:00
V
17 °C 10 km+ - 060°   060° 4 kt METAR LFCK 220200Z AUTO 06004KT CAVOK 17/14 Q1014
03:30
V
18 °C 10 km+ - Var   Var 2 kt METAR LFCK 220130Z AUTO VRB02KT CAVOK 18/15 Q1014
03:00
V
19 °C 10 km+ - Var   Var 3 kt METAR LFCK 220100Z AUTO VRB03KT CAVOK 19/16 Q1014
02:30
V
19 °C 10 km+ - 040°   040° 2 kt METAR LFCK 220030Z AUTO 04002KT CAVOK 19/16 Q1014
02:00
V
20 °C 10 km+ - 090°   090° 3 kt METAR LFCK 220000Z AUTO 09003KT 040V140 CAVOK 20/16 Q1015
01:30
V
21 °C 10 km+ - 160°   160° 9 kt METAR LFCK 212330Z AUTO 16009KT CAVOK 21/17 Q1015
01:00
V
21 °C 10 km+ - 150°   150° 6 kt METAR LFCK 212300Z AUTO 15006KT CAVOK 21/17 Q1015
00:30
V
22 °C 10 km+ - 120°   120° 5 kt METAR LFCK 212230Z AUTO 12005KT CAVOK 22/17 Q1016
00:00
V
22 °C 10 km+ - 130°   130° 5 kt METAR LFCK 212200Z AUTO 13005KT CAVOK 22/18 Q1016

2022年5月21日

时间 代码 天气 温度 能见度 乌云 METAR/SPECI
23:30
V
24 °C 10 km+ - 110°   110° 6 kt METAR LFCK 212130Z AUTO 11006KT CAVOK 24/18 Q1016
23:00
V
24 °C 10 km+ - 120°   120° 12 kt METAR LFCK 212100Z AUTO 12012KT CAVOK 24/18 Q1016 NOSIG
22:30
V
24 °C 10 km+ - 150°   150° 8 kt METAR LFCK 212030Z AUTO 15008KT CAVOK 24/18 Q1017 NOSIG
22:00
V
25 °C 10 km+ - 120°   120° 10 kt METAR LFCK 212000Z AUTO 12010KT CAVOK 25/18 Q1017 NOSIG
21:30
V
26 °C 10 km+ - 130°   130° 11 kt METAR LFCK 211930Z AUTO 13011KT CAVOK 26/18 Q1017 NOSIG
21:00
V
27 °C 10 km+ - 130°   130° 11 kt METAR LFCK 211900Z AUTO 13011KT CAVOK 27/18 Q1017 NOSIG
20:30
V
28 °C 10 km+ - 120°   120° 12 kt METAR LFCK 211830Z AUTO 12012KT CAVOK 28/18 Q1017 NOSIG
20:00
V
28 °C 10 km+ - 120°   120° 12 kt METAR LFCK 211800Z AUTO 12012KT CAVOK 28/18 Q1016 NOSIG
19:30
V
29 °C 10 km+ - 130°   130° 13 kt METAR LFCK 211730Z AUTO 13013KT CAVOK 29/18 Q1016 NOSIG
19:00
V
30 °C 10 km+ - 120°   120° 11 kt METAR LFCK 211700Z AUTO 12011KT CAVOK 30/18 Q1016 NOSIG
18:30
V
31 °C 10 km+ - 110°   110° 14 kt METAR LFCK 211630Z AUTO 11014KT CAVOK 31/17 Q1017 NOSIG
18:00
V
31 °C 10 km+ - 110°   110° 15 kt METAR LFCK 211600Z AUTO 11015KT CAVOK 31/17 Q1016 NOSIG
17:30
V
31 °C 10 km+ - 110°   110° 14 kt METAR LFCK 211530Z AUTO 11014KT CAVOK 31/17 Q1017 NOSIG
17:00
V
33 °C 10 km+ - 110°   110° 13 kt METAR LFCK 211500Z AUTO 11013KT CAVOK 33/17 Q1017 NOSIG
16:30
V
33 °C 10 km+ - 120°   120° 13 kt METAR LFCK 211430Z AUTO 12013KT CAVOK 33/16 Q1017 NOSIG
16:00
V
33 °C 10 km+ - 120°   120° 12 kt METAR LFCK 211400Z AUTO 12012KT 090V150 CAVOK 33/15 Q1018 NOSIG
15:30
V
33 °C 10 km+ - 130°   130° 11 kt METAR LFCK 211330Z AUTO 13011KT CAVOK 33/16 Q1018 NOSIG
15:00
V
33 °C 10 km+ - 130°   130° 11 kt METAR LFCK 211300Z AUTO 13011KT 110V170 CAVOK 33/16 Q1018 NOSIG
14:30
V
32 °C 10 km+ - 110°   110° 11 kt METAR LFCK 211230Z AUTO 11011KT CAVOK 32/15 Q1018 NOSIG
14:00
V
32 °C 10 km+ - 120°   120° 10 kt METAR LFCK 211200Z AUTO 12010KT CAVOK 32/14 Q1018 NOSIG
13:30
V
32 °C 10 km+ - 120°   120° 11 kt METAR LFCK 211130Z AUTO 12011KT 090V160 CAVOK 32/16 Q1019 NOSIG
13:00
V
31 °C 10 km+ - 120°   120° 13 kt METAR LFCK 211100Z AUTO 12013KT CAVOK 31/15 Q1019 NOSIG
12:30
V
30 °C 10 km+ - 130°   130° 13 kt METAR LFCK 211030Z AUTO 13013KT CAVOK 30/15 Q1019 NOSIG
12:00
V
29 °C 10 km+ - 130°   130° 12 kt METAR LFCK 211000Z AUTO 13012KT CAVOK 29/14 Q1019 NOSIG
11:30
V
29 °C 10 km+ - 120°   120° 12 kt METAR LFCK 210930Z AUTO 12012KT CAVOK 29/14 Q1020 NOSIG
11:00
V
28 °C 10 km+ - 120°   120° 10 kt METAR LFCK 210900Z AUTO 12010KT 080V150 CAVOK 28/13 Q1020 NOSIG
10:30
V
27 °C 10 km+ - 110°   110° 11 kt METAR LFCK 210830Z AUTO 11011KT 080V140 CAVOK 27/13 Q1020 NOSIG
10:00
V
26 °C 10 km+ - 110°   110° 12 kt METAR LFCK 210800Z AUTO 11012KT CAVOK 26/12 Q1020 NOSIG
09:30
V
25 °C 10 km+ - 100°   100° 10 kt METAR LFCK 210730Z AUTO 10010KT 070V130 CAVOK 25/12 Q1021 NOSIG
09:00
V
23 °C 10 km+ - 100°   100° 12 kt METAR LFCK 210700Z AUTO 10012KT CAVOK 23/13 Q1021 NOSIG
08:30
V
22 °C 10 km+ - 100°   100° 13 kt METAR LFCK 210630Z AUTO 10013KT CAVOK 22/11 Q1021 NOSIG
08:00
V
19 °C 10 km+ - Var   Var 3 kt METAR LFCK 210600Z AUTO VRB03KT CAVOK 19/13 Q1022 NOSIG
07:30
V
15 °C 10 km+ - 140°   140° 3 kt METAR LFCK 210530Z AUTO 14003KT CAVOK 15/14 Q1022 NOSIG
07:00
V
15 °C 10 km+ - Var   Var 1 kt METAR LFCK 210500Z AUTO VRB01KT CAVOK 15/13 Q1022
06:30
V
15 °C 10 km+ - 050°   050° 2 kt METAR LFCK 210430Z AUTO 05002KT CAVOK 15/14 Q1023
06:00
V
15 °C 10 km+ - 150°   150° 4 kt METAR LFCK 210400Z AUTO 15004KT CAVOK 15/13 Q1023
05:30
V
16 °C 10 km+ - 110°   110° 3 kt METAR LFCK 210330Z AUTO 11003KT CAVOK 16/14 Q1023
05:00
V
15 °C 10 km+ - Var   Var 2 kt METAR LFCK 210300Z AUTO VRB02KT CAVOK 15/14 Q1023
04:30
V
16 °C 10 km+ - 140°   140° 6 kt METAR LFCK 210230Z AUTO 14006KT CAVOK 16/14 Q1023
04:00
V
16 °C 10 km+ - Var   Var 2 kt METAR LFCK 210200Z AUTO VRB02KT CAVOK 16/14 Q1023
03:30
V
17 °C 10 km+ - 130°   130° 2 kt METAR LFCK 210130Z AUTO 13002KT CAVOK 17/14 Q1023
03:00
V
17 °C 10 km+ - Var   000° 0 kt METAR LFCK 210100Z AUTO 00000KT CAVOK 17/14 Q1024
02:30
V
18 °C 10 km+ - 130°   130° 5 kt METAR LFCK 210030Z AUTO 13005KT CAVOK 18/14 Q1024
02:00
V
18 °C 10 km+ - 110°   110° 6 kt METAR LFCK 210000Z AUTO 11006KT CAVOK 18/14 Q1024
01:30
V
19 °C 10 km+ - 140°   140° 7 kt METAR LFCK 202330Z AUTO 14007KT CAVOK 19/14 Q1024
01:00
V
20 °C 10 km+ - 160°   160° 8 kt METAR LFCK 202300Z AUTO 16008KT CAVOK 20/15 Q1024
00:30
V
20 °C 10 km+ - 180°   180° 4 kt METAR LFCK 202230Z AUTO 18004KT 150V210 CAVOK 20/14 Q1025
00:00
V
21 °C 10 km+ - 130°   130° 8 kt METAR LFCK 202200Z AUTO 13008KT CAVOK 21/14 Q1024

2022年5月20日

时间 代码 天气 温度 能见度 乌云 METAR/SPECI
23:30
V
21 °C 10 km+ - 130°   130° 9 kt METAR LFCK 202130Z AUTO 13009KT CAVOK 21/14 Q1024 NOSIG
23:00
V
22 °C 10 km+ - 120°   120° 10 kt METAR LFCK 202100Z AUTO 12010KT CAVOK 22/14 Q1024 NOSIG
22:30
V
22 °C 10 km+ - 120°   120° 10 kt METAR LFCK 202030Z AUTO 12010KT CAVOK 22/14 Q1024 NOSIG
22:00
V
22 °C 10 km+ - 140°   140° 11 kt METAR LFCK 202000Z AUTO 14011KT CAVOK 22/14 Q1024 NOSIG
21:30
V
22 °C 10 km+ - 170°   170° 8 kt METAR LFCK 201930Z AUTO 17008KT 130V190 CAVOK 22/14 Q1024 NOSIG
21:00
V
24 °C 10 km+ - 050°   050° 4 kt METAR LFCK 201900Z AUTO 05004KT 350V120 CAVOK 24/14 Q1024 NOSIG
20:30
V
25 °C 10 km+ - 130°   130° 11 kt METAR LFCK 201830Z AUTO 13011KT CAVOK 25/14 Q1023 NOSIG
20:00
V
26 °C 10 km+ - 140°   140° 8 kt METAR LFCK 201800Z AUTO 14008KT CAVOK 26/15 Q1023 NOSIG
19:30
V
27 °C 10 km+ - 120°   120° 10 kt METAR LFCK 201730Z AUTO 12010KT CAVOK 27/15 Q1023 NOSIG
19:00
V
28 °C 10 km+ - 120°   120° 12 kt METAR LFCK 201700Z AUTO 12012KT CAVOK 28/14 Q1023 NOSIG
18:30
V
28 °C 10 km+ - 130°   130° 12 kt METAR LFCK 201630Z AUTO 13012KT CAVOK 28/14 Q1023 NOSIG
18:00
V
29 °C 10 km+ - 130°   130° 14 kt METAR LFCK 201600Z AUTO 13014KT CAVOK 29/14 Q1023 NOSIG
17:30
V
29 °C 10 km+ - 130°   130° 12 kt METAR LFCK 201530Z AUTO 13012KT CAVOK 29/15 Q1023 NOSIG
17:00
V
28 °C 10 km+ - 130°   130° 14 kt METAR LFCK 201500Z AUTO 13014KT CAVOK 28/14 Q1023 NOSIG
较旧的数据

下载我们的应用程序

在您的手机和平板电脑上轻松访问所有航空天气。
有许多网站上没有的功能,如离线支持和个人机场列表。

Studio Eveline

Benalmádena
España

我们和第三方通过cookies跟踪您在我们网站上的上网行为。如果您继续,我们认为您同意我们的cookie政策。 了解更多